createdAt,value
2023-04-08T00:00:25.073Z,64.36
2023-04-08T00:03:18.637Z,64.12
2023-04-08T00:05:52.600Z,64.22
2023-04-08T00:08:26.084Z,64.35
2023-04-08T00:10:59.544Z,64.32
2023-04-08T00:13:32.965Z,64.21
2023-04-08T00:16:08.638Z,64.41
2023-04-08T00:18:41.909Z,64.25
2023-04-08T00:21:16.928Z,64.36
2023-04-08T00:23:50.561Z,64.23
2023-04-08T00:26:23.953Z,64.34
2023-04-08T00:28:57.554Z,64.39
2023-04-08T00:31:31.451Z,64.36
2023-04-08T00:34:05.645Z,64.32
2023-04-08T00:36:39.869Z,64.20
2023-04-08T00:39:13.750Z,64.31
2023-04-08T00:41:47.324Z,64.45
2023-04-08T00:44:20.966Z,64.49
2023-04-08T00:46:54.465Z,64.44
2023-04-08T00:49:28.721Z,64.56
2023-04-08T00:52:02.573Z,64.54
2023-04-08T00:54:38.158Z,64.48
2023-04-08T00:57:11.996Z,64.54
2023-04-08T00:59:46.594Z,64.63
2023-04-08T01:02:27.877Z,64.65
2023-04-08T01:05:05.192Z,64.72
2023-04-08T01:07:43.517Z,64.70
2023-04-08T01:10:20.044Z,64.91
2023-04-08T01:12:56.936Z,64.69
2023-04-08T01:15:32.576Z,64.49
2023-04-08T01:18:10.894Z,64.51
2023-04-08T01:20:46.047Z,64.39
2023-04-08T01:23:27.615Z,64.35
2023-04-08T01:26:02.019Z,64.41
2023-04-08T01:28:37.016Z,64.37
2023-04-08T01:31:12.079Z,64.43
2023-04-08T01:33:47.126Z,64.33
2023-04-08T01:36:22.320Z,64.26
2023-04-08T01:38:56.358Z,64.43
2023-04-08T01:41:31.620Z,64.36
2023-04-08T01:44:06.432Z,64.51
2023-04-08T01:46:41.098Z,64.66
2023-04-08T01:49:16.183Z,64.66
2023-04-08T01:51:50.367Z,64.82
2023-04-08T01:54:25.213Z,64.87
2023-04-08T01:56:59.791Z,64.97
2023-04-08T01:59:37.030Z,65.11
2023-04-08T02:02:12.882Z,65.17
2023-04-08T02:04:46.730Z,65.28
2023-04-08T02:07:20.811Z,65.26
2023-04-08T02:09:54.274Z,65.32
2023-04-08T02:12:29.328Z,65.56
2023-04-08T02:15:02.932Z,65.59
2023-04-08T02:17:48.057Z,65.78
2023-04-08T02:20:25.103Z,65.92
2023-04-08T02:23:04.045Z,66.00
2023-04-08T02:25:40.346Z,66.18
2023-04-08T02:28:16.027Z,66.24
2023-04-08T02:30:53.094Z,66.33
2023-04-08T02:33:27.552Z,66.44
2023-04-08T02:36:02.457Z,66.38
2023-04-08T02:38:35.967Z,66.50
2023-04-08T02:41:09.766Z,66.54
2023-04-08T02:43:43.365Z,66.68
2023-04-08T02:46:17.257Z,66.68
2023-04-08T02:48:51.558Z,66.87
2023-04-08T02:51:26.421Z,66.85
2023-04-08T02:54:00.178Z,66.94
2023-04-08T02:56:34.405Z,66.93
2023-04-08T02:59:08.076Z,66.98
2023-04-08T03:01:41.559Z,67.08
2023-04-08T03:04:15.130Z,67.26
2023-04-08T03:06:48.795Z,67.30
2023-04-08T03:09:23.069Z,67.42
2023-04-08T03:11:56.581Z,67.52
2023-04-08T03:14:30.365Z,67.52
2023-04-08T03:17:04.002Z,67.55
2023-04-08T03:19:37.657Z,67.60
2023-04-08T03:22:11.475Z,67.64
2023-04-08T03:24:45.209Z,67.70
2023-04-08T03:27:18.596Z,67.75
2023-04-08T03:29:53.780Z,67.92
2023-04-08T03:32:27.653Z,67.87
2023-04-08T03:35:01.164Z,67.90
2023-04-08T03:37:34.726Z,67.89
2023-04-08T03:40:10.088Z,67.94
2023-04-08T03:42:43.795Z,68.06
2023-04-08T03:45:17.152Z,68.09
2023-04-08T03:47:51.204Z,68.14
2023-04-08T03:50:24.976Z,68.15
2023-04-08T03:52:58.636Z,68.16
2023-04-08T03:55:32.603Z,68.10
2023-04-08T03:58:06.644Z,68.17
2023-04-08T04:00:41.942Z,68.35
2023-04-08T04:03:16.103Z,68.46
2023-04-08T04:05:50.313Z,68.51
2023-04-08T04:08:24.102Z,68.60
2023-04-08T04:10:57.633Z,68.57
2023-04-08T04:13:31.286Z,68.52
2023-04-08T04:16:04.880Z,68.57
2023-04-08T04:18:38.395Z,68.58
2023-04-08T04:21:12.191Z,68.63
2023-04-08T04:23:46.277Z,68.78
2023-04-08T04:26:19.970Z,68.84
2023-04-08T04:28:53.774Z,69.00
2023-04-08T04:31:28.217Z,68.94
2023-04-08T04:34:01.978Z,68.95
2023-04-08T04:36:35.977Z,68.94
2023-04-08T04:39:09.721Z,69.00
2023-04-08T04:41:44.697Z,69.17
2023-04-08T04:44:18.380Z,68.93
2023-04-08T04:46:52.039Z,68.84
2023-04-08T04:49:25.855Z,68.76
2023-04-08T04:51:59.287Z,68.72
2023-04-08T04:54:32.653Z,69.00
2023-04-08T04:57:06.423Z,69.92
2023-04-08T04:59:40.328Z,69.89
2023-04-08T05:02:14.189Z,70.01
2023-04-08T05:04:47.895Z,70.30
2023-04-08T05:07:22.122Z,69.73
2023-04-08T05:09:55.808Z,69.37
2023-04-08T05:12:30.244Z,68.45
2023-04-08T05:15:03.954Z,67.52
2023-04-08T05:17:37.911Z,67.33
2023-04-08T05:20:12.876Z,67.16
2023-04-08T05:22:46.530Z,67.01
2023-04-08T05:25:20.367Z,66.67
2023-04-08T05:27:53.897Z,66.58
2023-04-08T05:30:27.824Z,66.51
2023-04-08T05:33:01.505Z,66.53
2023-04-08T05:35:35.762Z,66.39
2023-04-08T05:38:09.314Z,66.17
2023-04-08T05:40:43.237Z,66.12
2023-04-08T05:43:16.930Z,66.11
2023-04-08T05:45:50.641Z,66.02
2023-04-08T05:48:24.583Z,67.21
2023-04-08T05:50:57.832Z,68.81
2023-04-08T05:53:31.264Z,68.44
2023-04-08T05:56:05.163Z,66.99
2023-04-08T05:58:38.936Z,63.46
2023-04-08T06:01:12.455Z,61.85
2023-04-08T06:03:46.493Z,61.03
2023-04-08T06:06:20.541Z,60.60
2023-04-08T06:08:54.046Z,60.76
2023-04-08T06:11:28.088Z,60.49
2023-04-08T06:14:02.059Z,60.42
2023-04-08T06:16:35.625Z,60.40
2023-04-08T06:19:09.268Z,59.71
2023-04-08T06:21:43.161Z,59.09
2023-04-08T06:24:16.859Z,57.72
2023-04-08T06:26:50.669Z,57.74
2023-04-08T06:29:24.363Z,56.15
2023-04-08T06:31:58.175Z,55.01
2023-04-08T06:34:32.449Z,54.18
2023-04-08T06:37:06.644Z,52.76
2023-04-08T06:39:40.478Z,50.75
2023-04-08T06:42:13.998Z,48.94
2023-04-08T06:44:59.182Z,47.29
2023-04-08T06:47:32.826Z,45.84
2023-04-08T06:50:07.152Z,44.21
2023-04-08T06:52:40.767Z,42.40
2023-04-08T06:55:14.731Z,41.29
2023-04-08T06:57:48.254Z,39.45
2023-04-08T07:00:22.518Z,38.79
2023-04-08T07:02:56.296Z,37.34
2023-04-08T07:05:30.151Z,36.10
2023-04-08T07:08:03.867Z,35.35
2023-04-08T07:10:38.011Z,34.45
2023-04-08T07:13:12.599Z,33.16
2023-04-08T07:15:46.176Z,32.44
2023-04-08T07:18:20.054Z,32.15
2023-04-08T07:20:56.030Z,31.10
2023-04-08T07:23:29.221Z,30.34
2023-04-08T07:26:07.353Z,29.96
2023-04-08T07:28:40.537Z,29.25
2023-04-08T07:31:17.112Z,28.60
2023-04-08T07:33:50.863Z,28.29
2023-04-08T07:36:24.281Z,27.78
2023-04-08T07:38:57.868Z,27.66
2023-04-08T07:41:31.762Z,27.18
2023-04-08T07:44:05.556Z,26.88
2023-04-08T07:46:41.809Z,25.78
2023-04-08T07:49:15.930Z,25.60
2023-04-08T07:51:49.388Z,26.18
2023-04-08T07:54:22.883Z,26.12
2023-04-08T07:56:57.303Z,26.09
2023-04-08T07:59:31.302Z,26.04
2023-04-08T08:02:05.341Z,25.38
2023-04-08T08:04:39.204Z,24.70
2023-04-08T08:07:13.164Z,24.03
2023-04-08T08:09:46.926Z,23.96
2023-04-08T08:12:20.973Z,23.58
2023-04-08T08:14:55.190Z,23.27
2023-04-08T08:17:31.697Z,22.73
2023-04-08T08:20:06.258Z,22.60
2023-04-08T08:22:50.780Z,21.36
2023-04-08T08:25:30.160Z,21.09
2023-04-08T08:28:03.674Z,21.64
2023-04-08T08:30:38.738Z,21.87
2023-04-08T08:33:12.643Z,21.54
2023-04-08T08:35:46.892Z,21.00
2023-04-08T08:38:20.787Z,20.60
2023-04-08T08:41:00.109Z,19.60
2023-04-08T08:43:34.967Z,19.88
2023-04-08T08:46:12.539Z,19.91
2023-04-08T08:48:46.382Z,21.07
2023-04-08T08:51:20.793Z,22.62
2023-04-08T08:53:54.516Z,24.02
2023-04-08T08:56:29.180Z,24.46
2023-04-08T08:59:02.704Z,24.29
2023-04-08T09:01:38.039Z,22.64
2023-04-08T09:04:14.651Z,22.76
2023-04-08T09:06:50.428Z,22.75
2023-04-08T09:09:24.951Z,22.02
2023-04-08T09:12:06.763Z,21.59
2023-04-08T09:14:40.771Z,22.50
2023-04-08T09:17:14.784Z,23.65
2023-04-08T09:20:17.537Z,24.43
2023-04-08T09:23:02.015Z,24.21
2023-04-08T09:25:36.181Z,24.99
2023-04-08T09:28:22.851Z,25.82
2023-04-08T09:30:56.582Z,26.61
2023-04-08T09:33:36.259Z,27.15
2023-04-08T09:36:10.385Z,27.61
2023-04-08T09:38:44.441Z,28.26
2023-04-08T09:41:20.982Z,28.78
2023-04-08T09:43:56.457Z,29.28
2023-04-08T09:46:34.667Z,29.45
2023-04-08T09:49:16.048Z,30.16
2023-04-08T09:52:01.283Z,30.35
2023-04-08T09:54:46.292Z,30.05
2023-04-08T09:57:34.092Z,29.10
2023-04-08T10:00:15.229Z,27.72
2023-04-08T10:02:57.856Z,26.41
2023-04-08T10:05:32.654Z,25.20
2023-04-08T10:08:07.088Z,24.58
2023-04-08T10:10:43.205Z,24.42
2023-04-08T10:13:17.273Z,24.09
2023-04-08T10:15:51.201Z,23.85
2023-04-08T10:18:38.718Z,22.32
2023-04-08T10:21:35.066Z,21.88
2023-04-08T10:24:13.070Z,21.64
2023-04-08T10:26:49.141Z,20.79
2023-04-08T10:29:46.745Z,20.45
2023-04-08T10:32:42.467Z,21.34
2023-04-08T10:35:16.205Z,22.06
2023-04-08T10:37:50.104Z,23.27
2023-04-08T10:40:24.221Z,23.85
2023-04-08T10:43:00.190Z,23.94
2023-04-08T10:45:33.494Z,24.54
2023-04-08T10:48:24.059Z,23.98
2023-04-08T10:50:58.988Z,22.97
2023-04-08T10:53:34.272Z,22.94
2023-04-08T10:56:15.373Z,23.42
2023-04-08T10:58:56.841Z,22.87
2023-04-08T11:01:39.888Z,21.94
2023-04-08T11:04:19.105Z,21.63
2023-04-08T11:06:52.926Z,20.95
2023-04-08T11:09:26.901Z,21.34
2023-04-08T11:12:00.433Z,21.32
2023-04-08T11:14:34.605Z,21.68
2023-04-08T11:17:09.348Z,22.12
2023-04-08T11:19:43.994Z,22.32
2023-04-08T11:22:18.190Z,22.24
2023-04-08T11:24:52.202Z,21.71
2023-04-08T11:27:26.652Z,21.51
2023-04-08T11:30:00.719Z,20.55
2023-04-08T11:32:35.557Z,20.67
2023-04-08T11:35:10.524Z,20.74
2023-04-08T11:37:45.222Z,20.76
2023-04-08T11:40:24.873Z,20.61
2023-04-08T11:42:58.776Z,19.85
2023-04-08T11:45:40.218Z,19.98
2023-04-08T11:48:15.565Z,20.73
2023-04-08T11:50:51.391Z,21.42
2023-04-08T11:53:27.628Z,21.86
2023-04-08T11:56:17.673Z,22.13
2023-04-08T11:58:52.075Z,22.68
2023-04-08T12:01:26.123Z,23.06
2023-04-08T12:04:04.320Z,23.78
2023-04-08T12:06:36.207Z,24.49
2023-04-08T12:09:09.673Z,25.22
2023-04-08T12:11:43.170Z,25.82
2023-04-08T12:14:16.446Z,26.66
2023-04-08T12:16:50.115Z,26.39
2023-04-08T12:19:24.941Z,25.71
2023-04-08T12:21:58.885Z,25.21
2023-04-08T12:24:32.296Z,24.18
2023-04-08T12:27:06.374Z,23.43
2023-04-08T12:29:40.295Z,22.63
2023-04-08T12:32:15.404Z,22.51
2023-04-08T12:34:49.000Z,22.00
2023-04-08T12:37:22.611Z,21.67
2023-04-08T12:39:56.345Z,22.25
2023-04-08T12:42:29.775Z,22.27
2023-04-08T12:45:03.532Z,21.59
2023-04-08T12:47:37.101Z,22.12
2023-04-08T12:50:12.100Z,22.82
2023-04-08T12:52:45.938Z,22.90
2023-04-08T12:55:19.816Z,23.07
2023-04-08T12:57:53.546Z,23.04
2023-04-08T13:00:26.990Z,22.72
2023-04-08T13:03:00.728Z,22.25
2023-04-08T13:05:43.196Z,21.86
2023-04-08T13:08:17.982Z,22.41
2023-04-08T13:10:52.395Z,22.75
2023-04-08T13:13:27.018Z,22.85
2023-04-08T13:16:00.678Z,23.53
2023-04-08T13:18:34.117Z,24.02
2023-04-08T13:21:08.858Z,24.53
2023-04-08T13:23:42.639Z,24.36
2023-04-08T13:26:16.288Z,24.25
2023-04-08T13:28:56.716Z,24.29
2023-04-08T13:31:31.876Z,24.36
2023-04-08T13:34:05.401Z,24.82
2023-04-08T13:36:38.849Z,25.04
2023-04-08T13:39:13.196Z,25.46
2023-04-08T13:41:46.570Z,25.77
2023-04-08T13:44:20.097Z,26.32
2023-04-08T13:46:53.501Z,26.37
2023-04-08T13:49:28.090Z,26.34
2023-04-08T13:52:02.292Z,26.61
2023-04-08T13:54:36.747Z,26.90
2023-04-08T13:57:10.320Z,26.77
2023-04-08T13:59:44.845Z,27.19
2023-04-08T14:02:18.759Z,27.61
2023-04-08T14:04:52.768Z,28.09
2023-04-08T14:07:26.169Z,28.49
2023-04-08T14:10:00.313Z,28.48
2023-04-08T14:12:33.866Z,28.76
2023-04-08T14:15:08.884Z,29.20
2023-04-08T14:17:43.014Z,29.22
2023-04-08T14:20:16.494Z,29.66
2023-04-08T14:22:50.222Z,29.81
2023-04-08T14:25:24.039Z,30.03
2023-04-08T14:27:58.723Z,30.27
2023-04-08T14:30:32.719Z,30.42
2023-04-08T14:33:06.683Z,30.71
2023-04-08T14:35:40.768Z,30.73
2023-04-08T14:38:14.695Z,30.83
2023-04-08T14:40:48.375Z,31.42
2023-04-08T14:43:22.095Z,31.72
2023-04-08T14:45:55.723Z,31.79
2023-04-08T14:48:30.997Z,32.10
2023-04-08T14:51:05.007Z,32.34
2023-04-08T14:53:38.698Z,32.47
2023-04-08T14:56:13.089Z,32.51
2023-04-08T14:58:46.296Z,32.40
2023-04-08T15:01:19.997Z,32.46
2023-04-08T15:03:53.642Z,32.51
2023-04-08T15:06:28.026Z,32.80
2023-04-08T15:09:01.624Z,32.96
2023-04-08T15:11:35.133Z,33.36
2023-04-08T15:14:08.654Z,33.40
2023-04-08T15:16:42.415Z,33.40
2023-04-08T15:19:16.259Z,33.47
2023-04-08T15:21:50.260Z,33.61
2023-04-08T15:24:23.930Z,33.51
2023-04-08T15:26:57.964Z,33.37
2023-04-08T15:29:31.877Z,33.34
2023-04-08T15:32:05.400Z,33.21
2023-04-08T15:34:38.980Z,33.50
2023-04-08T15:37:12.370Z,33.70
2023-04-08T15:39:46.443Z,33.89
2023-04-08T15:42:20.708Z,34.33
2023-04-08T15:44:54.080Z,34.46
2023-04-08T15:47:27.814Z,34.56
2023-04-08T15:50:01.826Z,34.63
2023-04-08T15:52:36.040Z,34.86
2023-04-08T15:55:11.553Z,35.01
2023-04-08T15:57:45.147Z,35.38
2023-04-08T16:00:19.934Z,35.49
2023-04-08T16:02:53.689Z,35.59
2023-04-08T16:05:30.062Z,35.58
2023-04-08T16:08:04.792Z,35.76
2023-04-08T16:10:38.352Z,36.16
2023-04-08T16:13:12.049Z,36.49
2023-04-08T16:15:46.026Z,36.19
2023-04-08T16:18:19.662Z,36.26
2023-04-08T16:20:53.878Z,36.35
2023-04-08T16:23:27.525Z,36.18
2023-04-08T16:26:01.751Z,36.41
2023-04-08T16:28:34.959Z,36.63
2023-04-08T16:31:08.644Z,36.59
2023-04-08T16:33:42.185Z,36.73
2023-04-08T16:36:16.054Z,36.57
2023-04-08T16:38:49.564Z,36.72
2023-04-08T16:41:23.520Z,36.88
2023-04-08T16:43:58.083Z,36.99
2023-04-08T16:46:32.394Z,37.11
2023-04-08T16:49:06.593Z,37.05
2023-04-08T16:51:40.637Z,37.31
2023-04-08T16:54:14.279Z,37.47
2023-04-08T16:56:47.899Z,37.56
2023-04-08T16:59:21.645Z,37.77
2023-04-08T17:01:55.164Z,37.70
2023-04-08T17:04:28.893Z,37.83
2023-04-08T17:07:03.683Z,37.82
2023-04-08T17:09:37.219Z,37.98
2023-04-08T17:12:11.357Z,38.09
2023-04-08T17:14:45.121Z,38.18
2023-04-08T17:17:19.286Z,38.09
2023-04-08T17:19:53.425Z,38.26
2023-04-08T17:22:27.770Z,38.29
2023-04-08T17:25:01.526Z,38.26
2023-04-08T17:27:35.179Z,38.25
2023-04-08T17:30:11.551Z,38.40
2023-04-08T17:32:46.288Z,38.69
2023-04-08T17:35:19.958Z,38.77
2023-04-08T17:37:54.030Z,38.77
2023-04-08T17:40:28.312Z,38.70
2023-04-08T17:43:01.962Z,38.71
2023-04-08T17:45:35.752Z,38.63
2023-04-08T17:48:10.266Z,38.92
2023-04-08T17:50:43.848Z,38.97
2023-04-08T17:53:17.757Z,38.96
2023-04-08T17:55:51.677Z,38.92
2023-04-08T17:58:26.873Z,39.06
2023-04-08T18:01:01.033Z,39.29
2023-04-08T18:03:34.774Z,39.39
2023-04-08T18:06:10.720Z,39.31
2023-04-08T18:08:44.426Z,39.42
2023-04-08T18:11:17.989Z,39.61
2023-04-08T18:13:52.828Z,39.93
2023-04-08T18:16:26.810Z,40.14
2023-04-08T18:19:00.492Z,40.28
2023-04-08T18:21:34.492Z,40.53
2023-04-08T18:24:09.201Z,40.91
2023-04-08T18:26:43.936Z,41.64
2023-04-08T18:29:19.594Z,42.34
2023-04-08T18:31:53.775Z,43.17
2023-04-08T18:34:27.428Z,43.81
2023-04-08T18:37:01.414Z,44.65
2023-04-08T18:39:35.713Z,45.27
2023-04-08T18:42:09.133Z,45.90
2023-04-08T18:44:43.184Z,46.57
2023-04-08T18:47:17.503Z,47.09
2023-04-08T18:49:51.286Z,47.78
2023-04-08T18:52:25.433Z,48.19
2023-04-08T18:55:00.362Z,48.83
2023-04-08T18:57:34.886Z,49.19
2023-04-08T19:00:11.096Z,49.52
2023-04-08T19:02:44.481Z,50.09
2023-04-08T19:05:18.191Z,50.49
2023-04-08T19:07:52.248Z,50.96
2023-04-08T19:10:26.926Z,51.45
2023-04-08T19:13:00.942Z,52.05
2023-04-08T19:15:34.784Z,52.25
2023-04-08T19:18:08.198Z,52.49
2023-04-08T19:20:41.950Z,52.73
2023-04-08T19:23:16.558Z,53.07
2023-04-08T19:25:50.769Z,53.30
2023-04-08T19:28:24.660Z,53.55
2023-04-08T19:30:58.183Z,53.72
2023-04-08T19:33:32.228Z,53.85
2023-04-08T19:36:06.255Z,53.99
2023-04-08T19:38:40.041Z,54.22
2023-04-08T19:41:13.863Z,54.26
2023-04-08T19:43:48.337Z,54.54
2023-04-08T19:46:21.855Z,54.73
2023-04-08T19:48:58.944Z,54.99
2023-04-08T19:51:33.152Z,54.97
2023-04-08T19:54:07.085Z,55.25
2023-04-08T19:56:40.945Z,55.42
2023-04-08T19:59:14.668Z,55.48
2023-04-08T20:01:48.600Z,55.74
2023-04-08T20:04:22.139Z,56.02
2023-04-08T20:06:56.455Z,56.24
2023-04-08T20:09:30.199Z,56.38
2023-04-08T20:12:06.325Z,56.50
2023-04-08T20:14:45.399Z,56.65
2023-04-08T20:17:21.270Z,56.67
2023-04-08T20:19:55.146Z,56.89
2023-04-08T20:22:28.757Z,56.85
2023-04-08T20:25:02.586Z,57.11
2023-04-08T20:27:36.901Z,57.17
2023-04-08T20:30:12.529Z,57.26
2023-04-08T20:32:46.650Z,57.48
2023-04-08T20:35:21.426Z,57.53
2023-04-08T20:37:54.773Z,57.74
2023-04-08T20:40:28.609Z,57.94
2023-04-08T20:43:02.764Z,58.08
2023-04-08T20:45:38.134Z,58.28
2023-04-08T20:48:12.184Z,58.61
2023-04-08T20:50:46.530Z,58.63
2023-04-08T20:53:20.660Z,58.63
2023-04-08T20:55:54.175Z,58.67
2023-04-08T20:58:27.874Z,58.76
2023-04-08T21:01:02.555Z,58.79
2023-04-08T21:03:36.080Z,58.71
2023-04-08T21:06:09.972Z,58.71
2023-04-08T21:08:43.576Z,58.84
2023-04-08T21:11:17.523Z,58.99
2023-04-08T21:13:50.844Z,59.04
2023-04-08T21:16:24.241Z,59.15
2023-04-08T21:18:59.595Z,59.17
2023-04-08T21:21:33.314Z,59.30
2023-04-08T21:24:09.907Z,59.35
2023-04-08T21:26:44.089Z,59.41
2023-04-08T21:29:18.053Z,59.57
2023-04-08T21:31:51.816Z,59.80
2023-04-08T21:34:25.158Z,59.85
2023-04-08T21:36:58.761Z,59.89
2023-04-08T21:39:32.186Z,59.96
2023-04-08T21:42:06.415Z,60.10
2023-04-08T21:44:40.312Z,60.32
2023-04-08T21:47:14.608Z,60.31
2023-04-08T21:49:48.938Z,60.39
2023-04-08T21:52:22.160Z,60.54
2023-04-08T21:54:55.687Z,60.55
2023-04-08T21:57:29.298Z,60.63
2023-04-08T22:00:05.150Z,60.88
2023-04-08T22:02:49.404Z,60.99
2023-04-08T22:05:23.676Z,61.05
2023-04-08T22:07:57.712Z,61.23
2023-04-08T22:10:31.526Z,61.21
2023-04-08T22:13:05.232Z,61.35
2023-04-08T22:15:38.665Z,61.47
2023-04-08T22:18:12.132Z,61.58
2023-04-08T22:20:45.863Z,61.78
2023-04-08T22:23:19.405Z,61.80
2023-04-08T22:25:54.077Z,61.92
2023-04-08T22:28:28.004Z,62.03
2023-04-08T22:31:01.665Z,61.98
2023-04-08T22:33:35.801Z,62.02
2023-04-08T22:36:09.403Z,62.25
2023-04-08T22:38:42.723Z,62.30
2023-04-08T22:41:22.357Z,62.33
2023-04-08T22:43:55.839Z,62.36
2023-04-08T22:46:29.447Z,62.29
2023-04-08T22:49:03.093Z,62.39
2023-04-08T22:51:36.996Z,62.52
2023-04-08T22:54:11.583Z,62.63
2023-04-08T22:56:45.396Z,62.67
2023-04-08T22:59:19.366Z,62.64
2023-04-08T23:01:54.237Z,62.65
2023-04-08T23:04:28.409Z,62.64
2023-04-08T23:07:02.134Z,62.81
2023-04-08T23:09:35.352Z,62.88
2023-04-08T23:12:08.932Z,63.01
2023-04-08T23:14:42.661Z,63.04
2023-04-08T23:17:16.188Z,63.11
2023-04-08T23:19:49.841Z,63.07
2023-04-08T23:22:23.364Z,63.18
2023-04-08T23:24:56.870Z,63.09
2023-04-08T23:27:30.379Z,63.12
2023-04-08T23:30:06.009Z,63.29
2023-04-08T23:32:39.970Z,63.25
2023-04-08T23:35:14.101Z,63.34
2023-04-08T23:37:47.458Z,63.53
2023-04-08T23:40:21.249Z,63.46
2023-04-08T23:42:55.051Z,63.52
2023-04-08T23:45:28.644Z,63.51
2023-04-08T23:48:02.454Z,63.64
2023-04-08T23:50:35.765Z,63.81
2023-04-08T23:53:09.370Z,63.76
2023-04-08T23:55:43.357Z,63.74
2023-04-08T23:58:17.032Z,63.79
